Área dos Cursos
35º Festival de dança de joinville
 
 | Home | Sair |
 
CURSOS PROFESSORES INSCRIÇÕES
Clique nos títulos dos cursos para visualizar a programação completa.
Escolha os cursos desejados clicando nas caixas de seleção ao lado direito de cada curso, abaixo do carrinho de compra!
Para finalizar clique botão COMPRAR CURSOS abaixo da listagem.
Atenção: Caso não apareça o curso na listagem abaixo é porque você já o comprou ou o reservou.

Legenda:      V = Vagas ofertadas      D = Vagas disponíveis


CODCURSOPROFESSORDATAHORÁRIOR$VD
1balé clássico - avançadoFÁTIMA CERQUEIRA18/07/2017 a 21/07/201713:30 - 15:30240,00401
2DANÇA A CARÁTER - SêNIORmaria eugênia barrios18/07/2017 a 21/07/201716:10 - 18:10240,004035
3BALÉ CLÁSSICO - INFANTIL - INICIANTEFATIMA FONTENELLE18/07/2017 a 21/07/20178:00 - 10:00240,00400
4BALÉ CLÁSSICO - INFANTIL - INTERMEDIÁRIOFATIMA FONTENELLE18/07/2017 a 21/07/201710:30 - 12:30240,00400
5balé clássico - júnior - inicianteCARLLA BUBLITZ18/07/2017 a 21/07/201713:30 - 15:30240,00400
6balé clássico - júnior - intermediárioBEATRIZ ALMEIDA18/07/2017 a 21/07/20178:00 - 10:00240,00403
7balé clássico - júnior - intermediárioBEATRIZ ALMEIDA18/07/2017 a 21/07/201710:30 - 12:30240,00404
8Balé Clássico - Júnior - IntermediárioCARLLA BUBLITZ18/07/2017 a 21/07/201710:30 - 12:30240,00400
9Balé Clássico - Júnior - IntermediárioCARLLA BUBLITZ18/07/2017 a 21/07/201716:10 - 18:10240,00409
10BALÉ CLÁSSICO - SêNIOR - INICIANTENEYDE ROSSI18/07/2017 a 21/07/201716:10 - 18:10240,00403
11BALÉ CLÁSSICO - SÊNIOR - INTERMEDIÁRIOFAUZI MANSUR18/07/2017 a 21/07/20178:00 - 10:00240,00404
12balé clássico - sênior - intermediárioISOLINA RABELLO18/07/2017 a 21/07/201713:30 - 15:30240,004017
13BALÉ CLÁSSICO - SÊNIOR - INTERMEDIÁRIOISOLINA RABELLO18/07/2017 a 21/07/201716:10 - 18:10240,004012
14balé clássico - sênior - intermediárioLUIS AUGUSTO RIBEIRO18/07/2017 a 21/07/20178:00 - 10:00240,004029
15barra á terreMILTON KENNEDY18/07/2017 a 21/07/201710:30 - 12:30205,00350
16CURSO PARA PROFESSOR - A VISÃO DO PROFESSOR: Como potencializar o ensino/aprendizagem através da análise dos movimentos (TEÓRICO/PRÁTICO)Flávio Sampaio18/07/2017 a 21/07/20178:00 - 10:00205,00350
17A história e Equipamentos da iluminaçãoDAVID BOSBOOm18/07/2017 a 21/07/201710:30 - 12:30205,003517
18dança contemporânea - avançadoHOLLY CAVRELL18/07/2017 a 21/07/20178:00 - 10:00205,00353
19DANÇA CONTEMPORÂNEA - JÚNIOR - INTERMEDIÁRIOHOLLY CAVRELL18/07/2017 a 21/07/201716:10 - 18:10205,003515
20DANÇA CONTEMPORÂNEA - SêNIOR - INTERMEDIÁRIOluciana paludo18/07/2017 a 21/07/201710:30 - 12:30205,00350
21DANÇA FLAMENCAMIRI GALEANO18/07/2017 a 21/07/201713:30 - 15:30240,003520
22danças populares brasileiraseleonora gabriel18/07/2017 a 21/07/20178:00 - 10:00205,003515
23DANÇAS URBANAS - HIP HOP EXPERIMENTALJULIANA KIS18/07/2017 a 21/07/201710:30 - 12:30205,00352
24ENSAIADOR E ASSISTENTE DE COREOGRAFIAMARCIA de castro18/07/2017 a 21/07/201716:10 - 18:10205,003515
25JAZZ LÍRICO - JúNIOR - INICIANTELUAN RATTACASO18/07/2017 a 21/07/20178:00 - 10:00205,003515
26JAZZ LÍRICO - JúNIOR - INTERMEDIÁRIOLUAN RATTACASO18/07/2017 a 21/07/201716:10 - 18:10205,003514
27JAZZ MUSICAL - INTERMEDIÁRIOFernanda Chamma18/07/2017 a 21/07/201713:30 - 15:30205,00350
28METODOLOGIA DE ENSINO DO BALÉ PARA PROFESSORES I (teórico)VERA ARAGÃO18/07/2017 a 21/07/201716:10 - 18:10205,00350
29MODERN JAZZ - SÊNIOR - INTERMEDIÁRIOCAIO NUNES18/07/2017 a 21/07/201713:30 - 15:30205,00350
30PAS DE DEUX CLÁSSICO - TÉCNICA E EXPRESSÃO - VAGAS FEMININASPAULO RODRIGUES18/07/2017 a 21/07/201713:30 - 15:30240,00247
31pas de deux clássico - técnica e expressão - vagas masculinasPAULO RODRIGUES18/07/2017 a 21/07/201713:30 - 15:30240,001614
32preparação física para bailarinosMILTON KENNEDY18/07/2017 a 21/07/201716:10 - 18:10205,00350
33SAPATEADO - INFANTIL - INTERMEDIÁRIOBia mattar18/07/2017 a 21/07/201713:30 - 15:30205,003523
34técnica de pontas - júnior - inicianteNEYDE ROSSI18/07/2017 a 21/07/201710:30 - 12:30240,00406
35balé clássico - avançadogustavo lopes22/07/2017 a 25/07/201716:10 - 18:10240,004011
36DANÇA A CARÁTER - SêNIORmaria eugênia barrios22/07/2017 a 25/07/201710:30 - 12:30240,004035
37balé clássico - júnior - inicianteCARLLA BUBLITZ22/07/2017 a 25/07/20178:00 - 10:00240,004029
38Balé Clássico - Júnior - IntermediárioCARLLA BUBLITZ22/07/2017 a 25/07/201710:30 - 12:30240,00401
39balé clássico - júnior - intermediárioilara lopes22/07/2017 a 25/07/20178:00 - 10:00240,00406
40BALÉ CLÁSSICO - JÚNIOR - INTERMEDIÁRIOISOLINA RABELLO22/07/2017 a 25/07/201713:30 - 15:30240,004023
41balé clássico - infantil - intermediárioISOLINA RABELLO22/07/2017 a 25/07/201716:10 - 18:10240,00400
42balé clássico - sênior - inicianteBEATRIZ ALMEIDA22/07/2017 a 25/07/201710:30 - 12:30240,00404
43balé clássico - sênior - intermediáriogustavo lopes22/07/2017 a 25/07/201713:30 - 15:30240,004031
44balé clássico - sênior - intermediárioilara lopes22/07/2017 a 25/07/201710:30 - 12:30240,00401
45BALÉ CLÁSSICO - SÊNIOR - INTERMEDIÁRIONEYDE ROSSI22/07/2017 a 25/07/20178:00 - 10:00240,004015
46Balé Clássico - Sênior - IntermediárioNEYDE ROSSI22/07/2017 a 25/07/201716:10 - 18:10240,004032
47BARRA À TERREMILTON KENNEDY22/07/2017 a 25/07/20178:00 - 10:00205,00352
48Conceitos de Design de IluminaçãoDAVID BOSBOOm22/07/2017 a 25/07/201710:30 - 12:30205,00350
49DANÇA CONTEMPORÂNEA - JÚNIOR - INTERMEDIÁRIOFLÁVIO LIMA22/07/2017 a 25/07/201710:30 - 12:30205,003518
50dança contemporânea - júnior - intermediáriowagner moreira22/07/2017 a 25/07/201716:10 - 18:10205,003529
51DANÇA CONTEMPORÂNEA - SÊNIOR - INTERMEDIÁRIOFLÁVIO LIMA22/07/2017 a 25/07/201716:10 - 18:10205,003518
52dança contemporânea - sênior - intermediáriowagner moreira22/07/2017 a 25/07/201713:30 - 15:30205,00352
53DANÇAS URBANAS - práticasugo alexandre22/07/2017 a 25/07/20178:00 - 10:00205,003514
54INTRODUÇÃO A DANÇA DO VENTREclara sussekind22/07/2017 a 25/07/201716:10 - 18:10205,003519
55JAZZ DANCEHELÔ GOUVEIA22/07/2017 a 25/07/201713:30 - 15:30205,00350
56jazz dance - júnior - intermediárioANDREA SPOSITO22/07/2017 a 25/07/20178:00 - 10:00205,00351
57Jazz Dance - sÊnior - InicianteANDREA SPOSITO22/07/2017 a 25/07/201710:30 - 12:30205,00350
58JAZZ DANCE - SÊNIOR - INTERMEDIÁRIOANDREA SPOSITO22/07/2017 a 25/07/201716:10 - 18:10205,00350
59MÉTODO RP2 - MOBILIDADE FUNCIONALMEG MENDONÇA22/07/2017 a 25/07/20178:00 - 10:00205,003512
60MÉTODO RP2 - MOBILIDADE FUNCIONALMEG MENDONÇA22/07/2017 a 25/07/201716:10 - 18:10205,003516
61METODOLOGIA DE ENSINO DO BALÉ PARA PROFESSORES II (teórico)VERA ARAGÃO22/07/2017 a 25/07/20178:00 - 10:00205,00350
62O GRANDE LEGADO DA RÚSSIA DO SÉCULO XIX - BALés COMPLETOS DE REPERTÓRIOELIANA CAMINADA22/07/2017 a 25/07/201713:30 - 15:30205,00402
63PAS DE DEUX CLÁSSICO - TÉCNICA E EXPRESSÃO - VAGAS FEMININASPAULO RODRIGUES22/07/2017 a 25/07/201713:30 - 15:30240,00246
64PAS DE DEUX CLÁSSICO - TÉCNICA E EXPRESSÃO - VAGAS MASCULINASPAULO RODRIGUES22/07/2017 a 25/07/201713:30 - 15:30240,001610
65PREPARAÇÃO FÍSICA PARA BAILARINOSMILTON KENNEDY22/07/2017 a 25/07/201710:30 - 12:30205,00350
66preparação física para bailarinosMILTON KENNEDY22/07/2017 a 25/07/201713:30 - 15:30205,00350
67SAPATEADO - JÚNIOR - INTERMEDIÁRIOflavia costa22/07/2017 a 25/07/201713:30 - 15:30205,003526
68TÉCNICA DE PONTAS - SÊNIOR - INICIANTEmaria eugênia barrios22/07/2017 a 25/07/20178:00 - 10:00240,00404
69Balé Clássico - Avançadogustavo lopes26/07/2017 a 29/07/201716:10 - 18:10240,004031
70Balé Clássico - Júnior - InicianteCARLLA BUBLITZ26/07/2017 a 29/07/20178:00 - 10:00240,004014
71Balé Clássico - Júnior - IntermediárioBEATRIZ ALMEIDA26/07/2017 a 29/07/20178:00 - 10:00240,004032
72Balé Clássico - Júnior - IntermediárioBEATRIZ ALMEIDA26/07/2017 a 29/07/201716:10 - 18:10240,004033
73Balé Clássico - Júnior - IntermediárioCARLLA BUBLITZ26/07/2017 a 29/07/201710:30 - 12:30240,004011
74Balé Clássico - JÚnior - Intermediárioilara lopes26/07/2017 a 29/07/20178:00 - 10:00240,004028
75Balé Clássico - Sênior - Inicianteilara lopes26/07/2017 a 29/07/201710:30 - 12:30240,004018
76Balé Clássico - Sênior - IntermediárioFÁTIMA CERQUEIRA26/07/2017 a 29/07/201713:30 - 15:30240,004024
77Balé Clássico - Sênior - Intermediáriogustavo lopes26/07/2017 a 29/07/20178:00 - 10:00240,004030
78BALÉ CLÁSSICO - SêNIOR - INTERMEDIÁRIOmaria eugênia barrios26/07/2017 a 29/07/201710:30 - 12:30240,004036
79CURSO PARA PROFESSOR - BALÉ CLÁSSICOmaria eugênia barrios26/07/2017 a 29/07/201716:10 - 18:10240,004040
80Balé Clássico - Sênior - IntermediárioNEYDE ROSSI26/07/2017 a 29/07/201710:30 - 12:30240,004021
81Balé Clássico - Sênior - Intermediárioregina kotaka26/07/2017 a 29/07/201713:30 - 15:30240,004021
82BARRA À TERREMILTON KENNEDY26/07/2017 a 29/07/20178:00 - 10:00205,00351
83CURSO PARA PROFESSOR - JAZZ DANCE (PRÁTICO/TEÓRICO)ANDREA SPOSITO26/07/2017 a 29/07/20178:00 - 10:00205,00350
84CURSO PARA PROFESSOR - PRÁTICAS E TEORIAS PARA O ENSINO DA DANÇAESMERALDA GAZAL26/07/2017 a 29/07/201716:10 - 18:10205,00350
85Dança Contemporânea - Infantil - Inicianteluciana paludo26/07/2017 a 29/07/201713:30 - 15:30205,003512
86Dança Contemporânea - JÚnior - IntermediÁrioFLÁVIO LIMA26/07/2017 a 29/07/20178:00 - 10:00205,003514
87Dança Contemporânea - SÊnior - IntermediÁrioFLÁVIO LIMA26/07/2017 a 29/07/201710:30 - 12:30205,00350
88DANÇA CONTEMPORÂNEA - SêNIOR - INTERMEDIÁRIO: Danças Negras Contemporâneasrui moreira26/07/2017 a 29/07/201713:30 - 15:30205,003518
89musicais broadway - O violinista no telhadoalain sinai26/07/2017 a 29/07/201710:30 - 12:30205,003533
90DANÇAS URBANAS - SÊNIORHUGO OLIVEIRA26/07/2017 a 29/07/201713:30 - 15:30205,003522
91GESTÃO DE ESCOLAS DE DANÇA (teórico)laisa scandura26/07/2017 a 29/07/201710:30 - 12:30205,00350
92Jazz Dance - Infantil - intermediárioANDREA SPOSITO26/07/2017 a 29/07/201710:30 - 12:30205,00358
93MODERN JAZZ - SÊNIOR - INTERMEDIÁRIOsoraya bastos26/07/2017 a 29/07/201713:30 - 15:30205,00350
94Preparação física para bailarinosMILTON KENNEDY26/07/2017 a 29/07/201716:10 - 18:10205,00350
95SAPATEADO - AVANÇADO: Técnica, clareza e músicamarina coura26/07/2017 a 29/07/201716:10 - 18:10205,003512
96SAPATEADO AMERICANO - INICIANTE: TAP IS BACK!dora de paula26/07/2017 a 29/07/201713:30 - 15:30205,00351
97Técnica de Pontas - júnior - IntermediárioNEYDE ROSSI26/07/2017 a 29/07/201716:10 - 18:10240,004018
100Teatro Musical e Mercado de trabalhoMiguel Falabella25/07/2017 a 25/07/201716:00 - 18:0030,00500444
 
Festival de Dança de Joinville